Time;durP1;ratioP1;P1;durP2;ratioP2;P2;SDS_P1;SDS_P2;PMS_P1;PMS_P2;Temp;Humidity;BMP_temperature;BMP_pressure;BME280_temperature;BME280_humidity;BME280_pressure;Samples;Min_cycle;Max_cycle;Signal;HPM_P1;HPM_P2
2021/09/19 00:02:12;;;;;;;4.13;3.50;;;15.80;84.30;;;;;;5059878;28;20066;-65
2021/09/19 00:04:38;;;;;;;3.28;2.97;;;15.70;84.40;;;;;;5053868;28;20033;-65
2021/09/19 00:07:03;;;;;;;5.40;3.65;;;15.70;84.40;;;;;;5052206;28;20032;-64
2021/09/19 00:09:29;;;;;;;4.38;3.88;;;15.70;84.70;;;;;;5052783;28;20029;-65
2021/09/19 00:11:55;;;;;;;4.82;4.28;;;15.60;85.20;;;;;;5050109;28;20017;-65
2021/09/19 00:14:20;;;;;;;5.93;4.32;;;15.60;85.60;;;;;;5051397;28;20424;-65
2021/09/19 00:16:48;;;;;;;3.40;3.10;;;15.50;85.80;;;;;;5055100;28;20079;-65
2021/09/19 00:19:14;;;;;;;3.97;3.22;;;15.50;86.00;;;;;;5049782;28;20103;-64
2021/09/19 00:21:39;;;;;;;5.38;3.38;;;15.50;86.10;;;;;;5052468;28;20503;-65
2021/09/19 00:24:05;;;;;;;3.95;3.53;;;15.50;86.20;;;;;;5050934;28;20029;-65
2021/09/19 00:26:30;;;;;;;3.92;3.53;;;15.50;86.40;;;;;;5051073;28;20028;-65
2021/09/19 00:28:56;;;;;;;4.05;3.60;;;15.40;86.50;;;;;;5034546;28;20084;-65
2021/09/19 00:31:21;;;;;;;3.80;3.25;;;15.40;86.60;;;;;;5052431;28;20078;-65
2021/09/19 00:33:47;;;;;;;3.92;3.03;;;15.40;86.70;;;;;;5049295;28;20021;-65
2021/09/19 00:36:13;;;;;;;3.75;3.30;;;15.40;86.80;;;;;;5049304;28;20032;-64
2021/09/19 00:38:38;;;;;;;3.45;2.97;;;15.40;86.90;;;;;;5054473;28;20036;-65
2021/09/19 00:41:04;;;;;;;3.95;3.55;;;15.30;87.00;;;;;;5037659;28;20204;-65
2021/09/19 00:43:29;;;;;;;3.70;3.40;;;15.30;87.30;;;;;;5036940;28;20024;-65
2021/09/19 00:45:55;;;;;;;5.00;3.10;;;15.30;87.50;;;;;;5049238;28;20029;-64
2021/09/19 00:48:20;;;;;;;3.22;2.90;;;15.20;87.60;;;;;;5049802;28;20025;-65
2021/09/19 00:50:46;;;;;;;3.53;3.13;;;15.20;87.80;;;;;;5048864;28;20068;-65
2021/09/19 00:53:12;;;;;;;4.18;3.20;;;15.20;87.90;;;;;;5054299;28;20024;-65
2021/09/19 00:55:38;;;;;;;3.70;3.13;;;15.20;88.00;;;;;;5047616;28;20028;-65
2021/09/19 00:58:10;;;;;;;4.38;3.90;;;15.20;88.00;;;;;;5051509;28;20502;-65
2021/09/19 01:00:37;;;;;;;5.35;4.85;;;15.20;88.30;;;;;;5054620;28;20107;-65
2021/09/19 01:03:03;;;;;;;6.35;4.93;;;15.10;89.00;;;;;;5053769;28;20052;-65
2021/09/19 01:05:29;;;;;;;6.53;5.82;;;15.00;89.60;;;;;;5028611;28;20515;-65
2021/09/19 01:07:55;;;;;;;6.57;5.90;;;15.00;90.10;;;;;;5032812;28;20029;-65
2021/09/19 01:10:23;;;;;;;5.93;5.32;;;15.00;90.40;;;;;;5036734;28;20092;-65
2021/09/19 01:12:52;;;;;;;7.57;5.40;;;15.00;90.60;;;;;;5045513;28;20028;-65
2021/09/19 01:15:18;;;;;;;5.97;5.32;;;14.90;90.80;;;;;;5051720;28;20021;-65
2021/09/19 01:17:44;;;;;;;6.55;5.90;;;14.90;91.00;;;;;;5051799;28;20049;-65
2021/09/19 01:20:13;;;;;;;5.35;4.85;;;14.90;91.20;;;;;;5051581;28;20454;-65
2021/09/19 01:22:42;;;;;;;5.78;5.20;;;14.90;91.20;;;;;;5051177;28;20472;-65
2021/09/19 01:25:10;;;;;;;8.80;6.45;;;14.90;91.40;;;;;;5051188;28;20052;-65
2021/09/19 01:27:36;;;;;;;6.20;5.60;;;14.80;91.50;;;;;;5051407;28;20388;-65
2021/09/19 01:30:03;;;;;;;5.32;4.50;;;14.80;91.60;;;;;;5051030;28;20474;-65
2021/09/19 01:32:29;;;;;;;5.72;4.78;;;14.80;91.60;;;;;;5053183;28;20012;-65
2021/09/19 01:34:54;;;;;;;5.82;5.22;;;14.80;91.80;;;;;;5049852;28;20032;-65
2021/09/19 01:37:20;;;;;;;6.50;5.90;;;14.80;91.90;;;;;;5049573;28;20025;-65
2021/09/19 01:39:45;;;;;;;8.65;6.10;;;14.80;92.10;;;;;;5053875;28;20020;-65
2021/09/19 01:42:12;;;;;;;8.23;5.90;;;14.80;92.30;;;;;;5052308;28;20495;-65
2021/09/19 01:44:39;;;;;;;6.18;5.57;;;14.70;92.40;;;;;;5052165;28;20075;-65
2021/09/19 01:47:05;;;;;;;6.70;6.00;;;14.70;92.50;;;;;;5048198;28;20510;-65
2021/09/19 01:49:30;;;;;;;7.75;6.70;;;14.70;92.70;;;;;;5049391;28;20075;-65
2021/09/19 01:51:56;;;;;;;7.28;6.57;;;14.70;93.00;;;;;;5053949;28;20472;-65
2021/09/19 01:54:21;;;;;;;8.00;7.18;;;14.70;93.10;;;;;;5053895;28;20413;-65
2021/09/19 01:56:47;;;;;;;9.27;7.80;;;14.70;93.30;;;;;;5050662;28;20495;-65
2021/09/19 01:59:12;;;;;;;9.07;8.18;;;14.70;93.50;;;;;;5050951;28;20019;-65
2021/09/19 02:01:38;;;;;;;7.43;6.68;;;14.60;93.80;;;;;;5050820;28;20439;-65
2021/09/19 02:04:04;;;;;;;9.35;7.38;;;14.70;93.90;;;;;;5050967;28;20397;-65
2021/09/19 02:06:29;;;;;;;9.70;8.70;;;14.60;94.00;;;;;;5051519;28;20064;-65
2021/09/19 02:08:55;;;;;;;8.95;7.13;;;14.60;94.20;;;;;;5055552;28;20029;-65
2021/09/19 02:11:22;;;;;;;7.30;6.30;;;14.60;94.30;;;;;;5053726;28;20034;-65
2021/09/19 02:13:48;;;;;;;7.55;6.78;;;14.60;94.50;;;;;;5050414;28;20103;-65
2021/09/19 02:16:15;;;;;;;7.72;6.68;;;14.50;94.50;;;;;;5050723;28;20076;-65
2021/09/19 02:18:41;;;;;;;8.82;7.93;;;14.60;94.60;;;;;;5053514;28;20026;-64
2021/09/19 02:21:09;;;;;;;8.52;7.18;;;14.60;94.70;;;;;;5052446;28;20392;-65
2021/09/19 02:23:35;;;;;;;8.27;7.47;;;14.50;94.80;;;;;;5047705;28;20032;-65
2021/09/19 02:26:01;;;;;;;8.80;7.90;;;14.50;94.90;;;;;;5050794;28;20017;-65
2021/09/19 02:28:26;;;;;;;8.10;7.30;;;14.50;95.00;;;;;;5055340;28;20020;-64
2021/09/19 02:30:52;;;;;;;8.48;7.68;;;14.50;95.20;;;;;;5054742;28;20354;-65
2021/09/19 02:33:18;;;;;;;8.02;7.22;;;14.40;95.30;;;;;;5053686;28;20388;-64
2021/09/19 02:35:44;;;;;;;7.55;6.75;;;14.50;95.40;;;;;;5051227;28;20025;-64
2021/09/19 02:38:10;;;;;;;12.10;9.15;;;14.40;95.40;;;;;;5049116;28;20032;-64
2021/09/19 02:40:35;;;;;;;9.40;8.18;;;14.40;95.60;;;;;;5054561;28;20388;-65
2021/09/19 02:43:01;;;;;;;7.43;6.78;;;14.40;95.80;;;;;;5052660;28;20036;-65
2021/09/19 02:45:27;;;;;;;7.78;6.55;;;14.40;95.80;;;;;;5056837;28;20029;-65
2021/09/19 02:47:52;;;;;;;7.85;7.15;;;14.40;95.90;;;;;;5054508;28;20025;-65
2021/09/19 02:50:22;;;;;;;7.47;6.78;;;14.40;95.90;;;;;;5036411;28;20457;-64
2021/09/19 02:52:48;;;;;;;7.40;6.70;;;14.40;96.00;;;;;;5058146;28;20052;-64
2021/09/19 02:55:14;;;;;;;7.32;6.63;;;14.40;96.10;;;;;;5059517;28;20145;-64
2021/09/19 02:57:41;;;;;;;7.63;6.82;;;14.40;96.10;;;;;;5053932;28;20481;-64
2021/09/19 03:00:11;;;;;;;8.07;7.22;;;14.40;96.10;;;;;;5053792;28;20025;-65
2021/09/19 03:02:36;;;;;;;8.68;7.88;;;14.40;96.10;;;;;;5056864;28;20033;-65
2021/09/19 03:05:03;;;;;;;7.03;6.32;;;14.40;96.20;;;;;;5052054;28;20162;-64
2021/09/19 03:07:28;;;;;;;7.03;6.07;;;14.40;96.20;;;;;;5056303;28;20436;-64
2021/09/19 03:09:54;;;;;;;8.95;8.05;;;14.40;96.20;;;;;;5052236;28;20575;-64
2021/09/19 03:12:19;;;;;;;8.75;7.85;;;14.30;96.30;;;;;;5053863;28;20032;-65
2021/09/19 03:14:45;;;;;;;7.05;6.35;;;14.30;96.30;;;;;;5053577;28;20043;-64
2021/09/19 03:17:10;;;;;;;7.95;7.15;;;14.30;96.40;;;;;;5035676;28;20028;-64
2021/09/19 03:19:36;;;;;;;8.50;7.60;;;14.30;96.50;;;;;;5021057;28;20031;-64
2021/09/19 03:22:02;;;;;;;8.95;7.63;;;14.30;96.50;;;;;;5039737;28;20032;-64
2021/09/19 03:24:27;;;;;;;7.10;6.40;;;14.30;96.60;;;;;;5056027;28;20040;-64
2021/09/19 03:26:53;;;;;;;9.10;8.20;;;14.30;96.60;;;;;;5053265;28;20029;-64
2021/09/19 03:29:19;;;;;;;8.25;7.38;;;14.30;96.60;;;;;;5034653;28;20017;-64
2021/09/19 03:31:44;;;;;;;7.93;7.13;;;14.30;96.60;;;;;;5059018;28;20016;-65
2021/09/19 03:34:10;;;;;;;8.70;7.80;;;14.30;96.70;;;;;;5052264;28;20096;-65
2021/09/19 03:36:35;;;;;;;9.43;8.52;;;14.30;96.70;;;;;;5053396;28;20071;-64
2021/09/19 03:39:01;;;;;;;8.98;8.07;;;14.20;96.80;;;;;;5037529;28;20063;-64
2021/09/19 03:41:26;;;;;;;8.25;7.45;;;14.30;96.80;;;;;;5055473;28;20092;-65
2021/09/19 03:43:53;;;;;;;8.15;6.93;;;14.20;96.90;;;;;;5053429;28;20044;-64
2021/09/19 03:46:19;;;;;;;8.40;7.53;;;14.20;97.10;;;;;;5050438;28;20027;-64
2021/09/19 03:48:44;;;;;;;8.57;7.70;;;14.20;96.90;;;;;;5055322;28;20104;-65
2021/09/19 03:51:10;;;;;;;8.80;7.78;;;14.20;97.00;;;;;;5053228;28;20040;-64
2021/09/19 03:53:35;;;;;;;9.23;8.30;;;14.20;97.00;;;;;;5048866;28;20029;-65
2021/09/19 03:56:01;;;;;;;9.50;7.85;;;14.20;97.10;;;;;;5054014;28;20017;-64
2021/09/19 03:58:26;;;;;;;10.07;8.75;;;14.20;97.20;;;;;;5052898;28;20024;-65
2021/09/19 04:00:52;;;;;;;9.18;8.27;;;14.20;97.30;;;;;;5053403;28;20380;-65
2021/09/19 04:03:17;;;;;;;9.20;8.27;;;14.20;97.40;;;;;;5052922;28;20044;-64
2021/09/19 04:05:43;;;;;;;9.70;8.70;;;14.20;97.50;;;;;;5055881;28;20029;-65
2021/09/19 04:08:08;;;;;;;9.93;8.93;;;14.20;97.50;;;;;;5052458;28;20025;-65
2021/09/19 04:10:34;;;;;;;10.20;9.20;;;14.20;97.60;;;;;;5052749;28;20063;-64
2021/09/19 04:12:59;;;;;;;9.77;8.80;;;14.20;97.70;;;;;;5052931;28;20476;-64
2021/09/19 04:15:25;;;;;;;13.50;10.35;;;14.20;97.70;;;;;;5052567;28;20033;-64
2021/09/19 04:17:51;;;;;;;11.00;9.93;;;14.20;97.80;;;;;;5055258;28;20025;-64
2021/09/19 04:20:16;;;;;;;9.65;8.63;;;14.10;97.80;;;;;;5033226;28;20025;-65
2021/09/19 04:22:42;;;;;;;9.85;8.80;;;14.10;97.90;;;;;;5052472;28;20029;-64
2021/09/19 04:25:09;;;;;;;12.32;10.80;;;14.10;97.90;;;;;;5056216;28;20025;-64
2021/09/19 04:27:35;;;;;;;13.15;10.18;;;14.10;98.00;;;;;;5034550;28;20036;-64
2021/09/19 04:30:02;;;;;;;13.15;11.07;;;14.10;98.10;;;;;;5052520;28;20025;-64
2021/09/19 04:32:27;;;;;;;11.55;10.32;;;14.20;98.20;;;;;;5051104;28;20095;-64
2021/09/19 04:34:53;;;;;;;10.43;9.38;;;14.10;98.20;;;;;;5050777;28;20465;-64
2021/09/19 04:37:18;;;;;;;11.15;9.93;;;14.10;98.30;;;;;;5052224;28;20021;-64
2021/09/19 04:39:45;;;;;;;12.30;11.10;;;14.10;98.40;;;;;;5051761;28;20365;-64
2021/09/19 04:42:11;;;;;;;12.38;11.07;;;14.10;98.50;;;;;;5049491;28;20044;-65
2021/09/19 04:44:36;;;;;;;11.88;9.98;;;14.10;98.60;;;;;;5052122;28;20013;-64
2021/09/19 04:47:02;;;;;;;11.23;10.13;;;14.10;98.60;;;;;;5054543;28;20477;-64
2021/09/19 04:49:28;;;;;;;11.88;10.57;;;14.10;98.60;;;;;;5049837;28;20026;-64
2021/09/19 04:51:54;;;;;;;11.80;10.60;;;14.10;98.70;;;;;;5059847;28;20086;-64
2021/09/19 04:54:19;;;;;;;12.45;11.18;;;14.10;98.70;;;;;;5049093;28;20839;-65
2021/09/19 04:56:44;;;;;;;12.88;10.98;;;14.10;98.80;;;;;;5033807;28;20538;-64
2021/09/19 04:59:10;;;;;;;12.45;11.18;;;14.10;98.80;;;;;;5047918;28;20487;-64
2021/09/19 05:01:35;;;;;;;11.23;10.13;;;14.10;98.80;;;;;;5053574;28;20040;-64
2021/09/19 05:04:01;;;;;;;11.73;10.50;;;14.00;98.70;;;;;;5051933;28;20029;-64
2021/09/19 05:06:27;;;;;;;10.63;9.52;;;14.10;98.90;;;;;;5054911;28;20079;-64
2021/09/19 05:08:52;;;;;;;10.85;9.73;;;14.00;98.80;;;;;;5051700;28;20029;-65
2021/09/19 05:11:18;;;;;;;13.35;11.15;;;14.00;98.80;;;;;;5047440;28;20024;-64
2021/09/19 05:13:43;;;;;;;12.00;10.70;;;14.00;98.80;;;;;;5050037;28;20031;-64
2021/09/19 05:16:09;;;;;;;11.30;10.02;;;14.00;98.80;;;;;;5051666;28;20017;-64
2021/09/19 05:18:35;;;;;;;9.93;8.88;;;14.00;98.80;;;;;;5049233;28;20523;-64
2021/09/19 05:21:00;;;;;;;10.93;9.82;;;14.00;98.80;;;;;;5050209;28;20487;-64
2021/09/19 05:23:27;;;;;;;15.13;12.05;;;14.00;98.80;;;;;;5053158;28;20048;-64
2021/09/19 05:25:52;;;;;;;12.10;10.90;;;14.00;98.80;;;;;;5051515;28;20013;-64
2021/09/19 05:28:18;;;;;;;12.00;10.70;;;14.00;98.90;;;;;;5048580;28;20025;-64
2021/09/19 05:30:44;;;;;;;10.77;9.52;;;14.00;99.00;;;;;;5048862;28;20096;-64
2021/09/19 05:33:10;;;;;;;13.98;9.20;;;14.00;98.90;;;;;;5053867;28;20017;-64
2021/09/19 05:35:35;;;;;;;11.40;10.23;;;14.00;98.90;;;;;;5054138;28;20029;-64
2021/09/19 05:38:07;;;;;;;11.98;10.25;;;14.00;98.90;;;;;;5050960;28;20477;-64
2021/09/19 05:40:33;;;;;;;11.75;10.55;;;14.00;99.00;;;;;;5048601;28;20075;-65
2021/09/19 05:43:01;;;;;;;11.60;10.40;;;13.90;99.00;;;;;;5033057;28;20074;-64
2021/09/19 05:45:27;;;;;;;12.27;10.68;;;13.90;99.10;;;;;;5052268;28;20021;-64
2021/09/19 05:47:53;;;;;;;11.55;9.68;;;13.90;99.10;;;;;;5052512;28;20025;-64
2021/09/19 05:50:18;;;;;;;11.13;9.90;;;13.90;99.10;;;;;;5051104;28;20017;-64
2021/09/19 05:52:44;;;;;;;11.05;9.15;;;13.90;99.10;;;;;;5048234;28;20049;-64
2021/09/19 05:55:10;;;;;;;10.35;9.30;;;13.90;99.00;;;;;;5050923;28;20028;-64
2021/09/19 05:57:35;;;;;;;10.27;9.18;;;13.90;99.00;;;;;;5051998;28;20063;-64
2021/09/19 06:00:01;;;;;;;10.55;9.38;;;14.00;99.00;;;;;;5034774;28;20487;-64
2021/09/19 06:02:26;;;;;;;10.95;9.00;;;13.90;99.00;;;;;;5060804;28;20025;-64
2021/09/19 06:04:52;;;;;;;9.60;8.07;;;14.00;99.00;;;;;;5049152;28;20026;-64
2021/09/19 06:07:17;;;;;;;11.07;9.80;;;14.00;99.00;;;;;;5043968;28;20465;-64
2021/09/19 06:09:43;;;;;;;9.43;8.40;;;14.00;98.90;;;;;;5017029;28;20171;-64
2021/09/19 06:12:08;;;;;;;11.48;9.10;;;14.00;98.90;;;;;;5070009;28;20016;-64
2021/09/19 06:14:34;;;;;;;7.90;7.10;;;14.00;98.80;;;;;;5070299;28;20427;-64
2021/09/19 06:16:59;;;;;;;9.48;8.52;;;14.10;98.80;;;;;;5070346;28;20424;-64
2021/09/19 06:19:25;;;;;;;10.32;9.23;;;14.10;98.80;;;;;;5040874;28;20068;-64
2021/09/19 06:21:50;;;;;;;8.82;7.93;;;14.10;98.70;;;;;;5049609;28;20445;-64
2021/09/19 06:24:16;;;;;;;9.50;8.52;;;14.10;98.70;;;;;;5046800;28;20079;-64
2021/09/19 06:26:41;;;;;;;9.57;8.57;;;14.10;98.70;;;;;;5033802;28;20108;-64
2021/09/19 06:29:07;;;;;;;9.95;8.48;;;14.10;98.70;;;;;;5039316;28;20087;-64
2021/09/19 06:31:32;;;;;;;9.50;8.35;;;14.10;98.70;;;;;;5039523;28;20024;-64
2021/09/19 06:33:58;;;;;;;10.10;8.55;;;14.20;98.70;;;;;;5056961;28;20049;-65
2021/09/19 06:36:24;;;;;;;10.55;9.38;;;14.20;98.70;;;;;;5036736;28;20064;-65
2021/09/19 06:38:49;;;;;;;10.57;9.25;;;14.20;98.70;;;;;;5057110;28;20025;-65
2021/09/19 06:41:15;;;;;;;9.50;8.50;;;14.20;98.70;;;;;;5039330;28;20021;-65
2021/09/19 06:43:40;;;;;;;11.30;7.80;;;14.30;98.70;;;;;;5057006;28;20024;-65
2021/09/19 06:46:06;;;;;;;8.82;7.93;;;14.30;98.60;;;;;;5054604;28;20100;-65
2021/09/19 06:48:31;;;;;;;10.18;8.07;;;14.30;98.60;;;;;;5036426;28;20465;-65
2021/09/19 06:50:57;;;;;;;9.52;8.48;;;14.30;98.60;;;;;;5056517;28;20037;-65
2021/09/19 06:53:22;;;;;;;12.52;8.15;;;14.30;98.60;;;;;;5048944;28;20026;-65
2021/09/19 06:55:49;;;;;;;9.77;8.77;;;14.40;98.60;;;;;;5036829;28;20041;-63
2021/09/19 06:58:14;;;;;;;9.43;8.38;;;14.40;98.50;;;;;;5052768;28;20028;-63
2021/09/19 07:00:40;;;;;;;10.93;9.02;;;14.50;98.50;;;;;;5056849;28;20057;-63
2021/09/19 07:03:05;;;;;;;8.52;7.63;;;14.50;98.50;;;;;;5054451;28;20032;-65
2021/09/19 07:05:31;;;;;;;10.75;9.65;;;14.50;98.40;;;;;;5054098;28;20033;-65
2021/09/19 07:07:57;;;;;;;10.45;9.25;;;14.60;98.50;;;;;;5056799;28;20028;-65
2021/09/19 07:10:22;;;;;;;9.45;8.45;;;14.70;98.50;;;;;;5055823;28;20476;-65
2021/09/19 07:13:25;;;;;;;8.65;7.70;;;14.70;98.40;;;;;;5055295;28;20060;-66
2021/09/19 07:15:53;;;;;;;9.98;8.15;;;14.80;98.40;;;;;;5045264;28;20105;-65
2021/09/19 07:18:20;;;;;;;8.52;7.68;;;14.90;98.40;;;;;;5042642;28;20038;-65
2021/09/19 07:20:55;;;;;;;8.43;7.55;;;14.90;98.30;;;;;;5047760;28;20032;-65
2021/09/19 07:23:22;;;;;;;8.20;7.40;;;15.00;98.30;;;;;;5028158;28;20112;-65
2021/09/19 07:26:00;;;;;;;7.68;6.95;;;15.00;98.30;;;;;;5052859;28;20021;-65
2021/09/19 07:28:27;;;;;;;6.80;6.10;;;15.10;98.20;;;;;;5050403;28;20040;-66
2021/09/19 07:30:53;;;;;;;7.97;6.80;;;15.10;98.10;;;;;;5052949;28;20013;-65
2021/09/19 07:33:51;;;;;;;7.07;6.38;;;15.20;98.10;;;;;;5048218;28;20016;-65
2021/09/19 07:36:17;;;;;;;6.22;5.63;;;15.30;97.90;;;;;;5028981;28;20056;-65
2021/09/19 07:38:42;;;;;;;7.82;5.82;;;15.30;97.90;;;;;;5054184;28;20092;-65
2021/09/19 07:41:08;;;;;;;6.07;5.47;;;15.40;97.80;;;;;;5055014;28;20029;-65
2021/09/19 07:43:34;;;;;;;6.93;6.22;;;15.50;97.60;;;;;;5036792;28;20506;-65
2021/09/19 07:46:25;;;;;;;9.40;7.38;;;15.50;97.50;;;;;;5053541;28;20101;-65
2021/09/19 07:48:51;;;;;;;7.20;6.50;;;15.60;97.40;;;;;;5046855;28;20076;-65
2021/09/19 07:51:27;;;;;;;6.75;6.07;;;15.60;97.40;;;;;;5048033;28;20077;-65
2021/09/19 07:53:53;;;;;;;6.85;5.95;;;15.70;97.40;;;;;;5053461;28;20029;-65
2021/09/19 07:56:21;;;;;;;7.43;6.65;;;15.70;97.30;;;;;;5052927;28;20512;-65
2021/09/19 07:58:48;;;;;;;6.85;6.15;;;15.80;97.30;;;;;;5038934;28;20460;-65
2021/09/19 08:01:21;;;;;;;6.32;5.72;;;15.80;97.20;;;;;;5044261;28;20060;-66
2021/09/19 08:04:14;;;;;;;5.65;5.05;;;15.90;97.20;;;;;;5050911;28;20515;-65
2021/09/19 08:07:03;;;;;;;4.25;3.85;;;16.00;97.10;;;;;;5051364;28;20436;-65
2021/09/19 08:09:28;;;;;;;6.18;5.07;;;16.00;97.00;;;;;;5047160;28;20035;-65
2021/09/19 08:14:57;;;;;;;4.50;3.45;;;16.30;96.60;;;;;;5038571;28;20028;-66
2021/09/19 08:17:26;;;;;;;3.80;3.38;;;16.40;96.50;;;;;;5048636;28;20025;-65
2021/09/19 08:19:52;;;;;;;3.28;2.97;;;16.50;96.30;;;;;;5033283;28;20435;-65
2021/09/19 08:22:18;;;;;;;4.10;3.30;;;16.60;96.10;;;;;;5049592;28;20032;-65
2021/09/19 08:24:43;;;;;;;4.10;3.22;;;16.70;95.90;;;;;;5052059;28;20021;-65
2021/09/19 08:27:25;;;;;;;5.13;2.90;;;16.80;95.70;;;;;;5034066;28;20025;-65
2021/09/19 08:29:51;;;;;;;3.35;2.45;;;16.90;95.40;;;;;;5049456;28;20049;-65
2021/09/19 08:32:16;;;;;;;3.35;2.60;;;17.00;95.30;;;;;;5048779;28;20440;-66
2021/09/19 08:34:42;;;;;;;2.85;2.42;;;17.10;95.10;;;;;;5049408;28;20043;-65
2021/09/19 08:37:08;;;;;;;2.42;2.15;;;17.20;95.00;;;;;;5034442;28;20059;-66
2021/09/19 08:39:34;;;;;;;3.05;2.53;;;17.20;94.80;;;;;;5034286;28;20060;-65
2021/09/19 08:42:17;;;;;;;2.95;2.58;;;17.20;94.50;;;;;;5050248;28;20108;-66
2021/09/19 08:44:43;;;;;;;2.25;2.05;;;17.20;94.00;;;;;;5046463;28;20107;-65
2021/09/19 08:47:10;;;;;;;2.67;2.00;;;17.20;94.10;;;;;;5049080;28;20108;-65
2021/09/19 08:52:49;;;;;;;3.15;2.65;;;17.40;94.00;;;;;;4970297;28;20046;-65
2021/09/19 08:55:15;;;;;;;3.05;2.75;;;17.40;93.60;;;;;;5017858;28;20038;-65
2021/09/19 08:57:40;;;;;;;3.13;2.55;;;17.40;93.30;;;;;;5022161;28;20033;-65
2021/09/19 09:00:11;;;;;;;3.97;3.53;;;17.50;93.40;;;;;;5025332;28;20397;-65
2021/09/19 09:02:48;;;;;;;4.30;3.10;;;17.50;93.00;;;;;;5028044;28;20440;-66
2021/09/19 09:05:56;;;;;;;4.22;2.67;;;17.60;92.80;;;;;;5030091;28;20025;-65
2021/09/19 09:08:23;;;;;;;3.33;2.75;;;17.60;92.70;;;;;;5011104;28;20034;-65
2021/09/19 09:10:50;;;;;;;3.08;2.53;;;17.60;92.80;;;;;;5030841;28;20428;-65
2021/09/19 09:13:19;;;;;;;4.03;2.63;;;17.70;92.80;;;;;;5027699;28;20482;-65
2021/09/19 09:15:47;;;;;;;3.65;2.97;;;17.80;92.60;;;;;;5012055;28;20057;-66
2021/09/19 09:18:38;;;;;;;5.50;3.42;;;17.90;92.40;;;;;;5011174;28;20033;-65
2021/09/19 09:21:24;;;;;;;3.60;2.60;;;18.00;92.00;;;;;;5026215;28;20412;-66
2021/09/19 09:23:51;;;;;;;3.53;2.85;;;18.10;92.20;;;;;;5029403;28;20029;-65
2021/09/19 09:26:24;;;;;;;3.22;2.05;;;18.20;92.00;;;;;;5032457;28;20021;-66
2021/09/19 09:28:55;;;;;;;2.53;2.08;;;18.30;91.70;;;;;;5031545;28;20025;-66
2021/09/19 09:31:42;;;;;;;2.53;2.25;;;18.40;91.60;;;;;;5023752;28;20026;-66
2021/09/19 09:34:37;;;;;;;2.72;2.20;;;18.50;91.50;;;;;;5019260;28;20508;-66
2021/09/19 09:37:03;;;;;;;2.97;2.45;;;18.70;91.30;;;;;;5024231;28;20084;-66
2021/09/19 09:39:40;;;;;;;2.67;2.13;;;18.80;91.30;;;;;;5031866;28;20083;-65
2021/09/19 09:42:20;;;;;;;2.08;1.77;;;18.90;90.70;;;;;;5031936;28;20385;-66
2021/09/19 09:44:51;;;;;;;3.10;2.45;;;19.10;90.70;;;;;;5032059;28;20056;-66
2021/09/19 09:47:28;;;;;;;3.95;2.72;;;19.10;89.10;;;;;;5031165;28;20025;-66
2021/09/19 09:49:59;;;;;;;3.92;2.67;;;19.10;88.80;;;;;;5028189;28;20026;-66
2021/09/19 09:52:28;;;;;;;3.55;2.08;;;19.20;89.30;;;;;;5034607;28;20386;-66
2021/09/19 09:58:08;;;;;;;2.83;1.77;;;19.40;87.90;;;;;;5046710;28;20495;-66
2021/09/19 10:00:35;;;;;;;2.47;2.00;;;19.70;87.20;;;;;;5052318;28;20025;-66
2021/09/19 10:03:01;;;;;;;2.47;1.67;;;19.90;87.00;;;;;;5037916;28;20116;-66
2021/09/19 10:05:28;;;;;;;2.78;1.75;;;20.10;86.80;;;;;;5052443;28;20140;-66
2021/09/19 10:07:55;;;;;;;2.17;1.80;;;20.30;86.30;;;;;;5051951;28;20025;-66
2021/09/19 10:10:26;;;;;;;3.15;2.20;;;20.50;85.20;;;;;;5052553;28;20063;-66
2021/09/19 10:12:53;;;;;;;3.35;2.30;;;20.70;83.90;;;;;;5051246;28;20020;-66
2021/09/19 10:15:29;;;;;;;2.75;2.15;;;20.70;82.90;;;;;;5048775;28;20070;-66
2021/09/19 10:17:55;;;;;;;2.72;2.10;;;21.00;82.20;;;;;;5050529;28;20021;-66
2021/09/19 10:20:34;;;;;;;3.65;2.83;;;21.30;81.00;;;;;;5051680;28;20485;-66
2021/09/19 10:23:16;;;;;;;4.72;3.47;;;21.40;78.70;;;;;;5040391;28;20059;-66
2021/09/19 10:25:55;;;;;;;2.92;2.30;;;21.20;77.40;;;;;;5051787;28;20037;-66
2021/09/19 10:28:43;;;;;;;3.10;2.28;;;21.10;77.80;;;;;;5051982;28;20477;-66
2021/09/19 10:31:08;;;;;;;2.67;2.22;;;21.10;78.60;;;;;;5051087;28;20029;-66
2021/09/19 10:33:38;;;;;;;2.33;1.73;;;21.30;78.30;;;;;;5051143;28;20067;-66
2021/09/19 10:36:34;;;;;;;1.50;1.27;;;21.70;78.60;;;;;;5043015;28;20028;-66
2021/09/19 10:39:12;;;;;;;2.80;2.17;;;22.30;77.50;;;;;;5026830;28;20519;-66
2021/09/19 10:42:17;;;;;;;2.70;1.83;;;22.50;74.00;;;;;;5051984;28;20028;-66
2021/09/19 10:44:45;;;;;;;1.80;1.25;;;22.70;73.30;;;;;;5051846;28;20021;-66
2021/09/19 10:47:12;;;;;;;2.35;1.00;;;23.10;73.50;;;;;;5051520;28;20013;-67
2021/09/19 10:49:40;;;;;;;1.50;0.90;;;23.80;74.80;;;;;;5054220;28;20159;-67
2021/09/19 10:52:10;;;;;;;2.13;1.00;;;25.10;72.70;;;;;;5046011;28;20139;-67
2021/09/19 10:54:52;;;;;;;0.90;0.70;;;26.70;67.90;;;;;;5035522;28;20029;-67
2021/09/19 10:57:29;;;;;;;0.90;0.70;;;28.60;65.40;;;;;;5033885;28;20022;-67
2021/09/19 11:00:23;;;;;;;1.33;0.77;;;29.20;63.30;;;;;;5028777;28;20108;-67
2021/09/19 11:03:00;;;;;;;1.25;0.90;;;30.30;60.90;;;;;;5009312;28;20562;-67
2021/09/19 11:05:32;;;;;;;1.55;0.80;;;29.90;55.30;;;;;;5025145;28;20437;-67
2021/09/19 11:11:00;;;;;;;2.95;1.35;;;29.30;54.10;;;;;;5010001;28;20634;-66
2021/09/19 11:13:29;;;;;;;1.10;1.00;;;28.40;54.60;;;;;;5033094;28;20691;-66
2021/09/19 11:16:04;;;;;;;2.58;0.75;;;28.90;54.00;;;;;;5032397;28;20021;-66
2021/09/19 11:25:11;;;;;;;0.60;0.60;;;34.10;48.30;;;;;;5015639;28;20038;-66
2021/09/19 11:27:39;;;;;;;1.55;0.60;;;33.70;47.40;;;;;;5035088;28;20176;-67
2021/09/19 11:30:05;;;;;;;0.63;0.53;;;33.90;48.40;;;;;;5034171;28;20381;-67
2021/09/19 11:32:31;;;;;;;0.50;0.50;;;33.90;48.20;;;;;;5030635;28;20260;-67
2021/09/19 11:34:58;;;;;;;2.20;0.77;;;34.00;47.90;;;;;;5033817;28;20484;-67
2021/09/19 11:37:25;;;;;;;0.80;0.50;;;33.90;48.00;;;;;;5034666;28;20025;-66
2021/09/19 11:39:51;;;;;;;0.60;0.52;;;33.20;47.70;;;;;;5034302;28;20100;-66
2021/09/19 11:42:16;;;;;;;0.88;0.60;;;32.50;48.20;;;;;;5034579;28;20532;-66
2021/09/19 11:44:47;;;;;;;0.60;0.60;;;31.90;48.10;;;;;;5034089;28;20485;-67
2021/09/19 11:47:18;;;;;;;0.57;0.50;;;31.40;49.20;;;;;;5034489;28;20022;-66
2021/09/19 11:49:57;;;;;;;1.17;0.70;;;31.10;49.10;;;;;;5034786;28;20501;-66
2021/09/19 11:52:23;;;;;;;1.17;0.85;;;30.00;48.50;;;;;;5034138;28;20053;-66
2021/09/19 11:54:50;;;;;;;0.60;0.50;;;29.40;49.60;;;;;;5034550;28;20034;-67
2021/09/19 11:57:16;;;;;;;0.60;0.50;;;29.60;50.10;;;;;;5033932;28;20022;-66
2021/09/19 11:59:47;;;;;;;0.70;0.60;;;30.40;49.80;;;;;;5034227;28;20025;-66
2021/09/19 12:02:15;;;;;;;1.08;0.60;;;31.00;48.30;;;;;;5012731;28;20052;-67
2021/09/19 12:04:45;;;;;;;1.02;0.50;;;31.80;47.90;;;;;;5024953;28;20025;-66
2021/09/19 12:10:11;;;;;;;1.15;0.70;;;33.90;45.50;;;;;;5020453;28;20058;-66
2021/09/19 12:12:36;;;;;;;0.75;0.50;;;33.80;44.90;;;;;;5033538;28;20068;-66
2021/09/19 12:15:03;;;;;;;0.60;0.50;;;33.50;44.00;;;;;;5034302;28;20112;-66
2021/09/19 12:17:29;;;;;;;0.60;0.50;;;33.00;44.60;;;;;;5033720;28;20034;-66
2021/09/19 12:20:31;;;;;;;;;;;;;;;;;;;;;
2021/09/19 12:23:17;;;;;;;1.10;0.50;;;31.90;45.60;;;;;;5033677;28;20030;-66
2021/09/19 12:28:52;;;;;;;0.80;0.55;;;31.10;47.20;;;;;;5009892;28;20393;-66
2021/09/19 12:31:41;;;;;;;0.90;0.60;;;30.90;47.30;;;;;;5014137;28;20018;-66
2021/09/19 12:34:08;;;;;;;;;;;30.50;47.50;;;;;;5028252;28;20033;-66
2021/09/19 12:36:54;;;;;;;0.60;0.52;;;30.20;47.80;;;;;;5033736;28;20392;-66
2021/09/19 12:39:41;;;;;;;1.00;0.47;;;30.00;48.10;;;;;;5033485;28;20078;-66
2021/09/19 12:42:06;;;;;;;0.80;0.60;;;29.90;48.40;;;;;;5016146;28;20025;-66
2021/09/19 12:44:34;;;;;;;0.82;0.60;;;29.90;48.20;;;;;;5033129;28;20076;-66
2021/09/19 12:47:19;;;;;;;;;;;;;;;;;;;;;
2021/09/19 12:49:46;;;;;;;0.70;0.50;;;29.20;48.60;;;;;;5033447;28;20376;-66
2021/09/19 12:52:13;;;;;;;1.02;0.75;;;28.80;49.30;;;;;;5033097;28;20041;-66
2021/09/19 12:54:49;;;;;;;1.30;0.60;;;28.30;49.60;;;;;;5033135;28;20101;-66
2021/09/19 12:57:17;;;;;;;1.27;0.70;;;28.10;50.20;;;;;;5033498;28;20032;-66
2021/09/19 12:59:43;;;;;;;0.77;0.53;;;27.80;50.60;;;;;;5033057;28;20104;-66
2021/09/19 13:02:47;;;;;;;0.60;0.50;;;27.70;51.10;;;;;;5015601;28;20116;-66
2021/09/19 13:05:31;;;;;;;0.50;0.50;;;27.60;51.30;;;;;;5019104;28;20504;-66
2021/09/19 13:07:57;;;;;;;0.68;0.60;;;27.80;51.40;;;;;;5032494;28;20055;-66
2021/09/19 13:10:23;;;;;;;0.82;0.60;;;28.30;51.10;;;;;;5033186;28;20071;-66
2021/09/19 13:13:21;;;;;;;0.68;0.50;;;28.80;50.00;;;;;;5031954;28;20026;-66
2021/09/19 13:16:07;;;;;;;1.25;0.88;;;29.40;49.90;;;;;;5004003;28;20022;-66
2021/09/19 13:18:32;;;;;;;0.60;0.60;;;30.60;47.80;;;;;;5032422;28;20041;-66
2021/09/19 13:20:58;;;;;;;0.90;0.70;;;30.60;47.20;;;;;;5032633;28;20481;-66